sensor_id;sensor_type;location;lat;lon;timestamp;pressure;altitude;pressure_sealevel;temperature
6498;BMP280;3282;48.358;10.958;2022-12-13T00:01:23;95509.69;;;-5.09
6498;BMP280;3282;48.358;10.958;2022-12-13T00:03:56;95505.56;;;-5.15
6498;BMP280;3282;48.358;10.958;2022-12-13T00:06:24;95511.25;;;-5.07
6498;BMP280;3282;48.358;10.958;2022-12-13T00:08:51;95509.19;;;-5.05
6498;BMP280;3282;48.358;10.958;2022-12-13T00:11:18;95500.88;;;-5.18
6498;BMP280;3282;48.358;10.958;2022-12-13T00:13:45;95514.38;;;-5.11
6498;BMP280;3282;48.358;10.958;2022-12-13T00:16:15;95500.88;;;-5.18
6498;BMP280;3282;48.358;10.958;2022-12-13T00:18:47;95506.31;;;-5.14
6498;BMP280;3282;48.358;10.958;2022-12-13T00:21:17;95501.66;;;-5.17
6498;BMP280;3282;48.358;10.958;2022-12-13T00:23:45;95495.91;;;-5.25
6498;BMP280;3282;48.358;10.958;2022-12-13T00:26:14;95503.47;;;-5.18
6498;BMP280;3282;48.358;10.958;2022-12-13T00:28:42;95502.19;;;-5.21
6498;BMP280;3282;48.358;10.958;2022-12-13T00:31:09;95491.00;;;-5.31
6498;BMP280;3282;48.358;10.958;2022-12-13T00:33:56;95486.34;;;-5.35
6498;BMP280;3282;48.358;10.958;2022-12-13T00:36:23;95495.66;;;-5.28
6498;BMP280;3282;48.358;10.958;2022-12-13T00:38:50;95501.94;;;-5.29
6498;BMP280;3282;48.358;10.958;2022-12-13T00:41:31;95492.28;;;-5.29
6498;BMP280;3282;48.358;10.958;2022-12-13T00:43:59;95494.66;;;-5.27
6498;BMP280;3282;48.358;10.958;2022-12-13T00:46:26;95476.91;;;-5.30
6498;BMP280;3282;48.358;10.958;2022-12-13T00:48:58;95489.44;;;-5.27
6498;BMP280;3282;48.358;10.958;2022-12-13T00:51:27;95483.69;;;-5.29
6498;BMP280;3282;48.358;10.958;2022-12-13T00:53:54;95485.78;;;-5.31
6498;BMP280;3282;48.358;10.958;2022-12-13T00:56:26;95473.03;;;-5.44
6498;BMP280;3282;48.358;10.958;2022-12-13T00:58:55;95468.09;;;-5.45
6498;BMP280;3282;48.358;10.958;2022-12-13T01:01:27;95474.34;;;-5.36
6498;BMP280;3282;48.358;10.958;2022-12-13T01:03:57;95489.94;;;-5.30
6498;BMP280;3282;48.358;10.958;2022-12-13T01:06:42;95467.56;;;-5.37
6498;BMP280;3282;48.358;10.958;2022-12-13T01:09:18;95474.34;;;-5.36
6498;BMP280;3282;48.358;10.958;2022-12-13T01:11:46;95464.19;;;-5.42
6498;BMP280;3282;48.358;10.958;2022-12-13T01:14:13;95467.06;;;-5.44
6498;BMP280;3282;48.358;10.958;2022-12-13T01:16:40;95478.25;;;-5.38
6498;BMP280;3282;48.358;10.958;2022-12-13T01:19:06;95481.38;;;-5.41
6498;BMP280;3282;48.358;10.958;2022-12-13T01:21:33;95479.84;;;-5.48
6498;BMP280;3282;48.358;10.958;2022-12-13T01:24:04;95480.06;;;-5.49
6498;BMP280;3282;48.358;10.958;2022-12-13T01:26:32;95477.50;;;-5.54
6498;BMP280;3282;48.358;10.958;2022-12-13T01:28:59;95479.06;;;-5.59
6498;BMP280;3282;48.358;10.958;2022-12-13T01:31:26;95482.19;;;-5.62
6498;BMP280;3282;48.358;10.958;2022-12-13T01:33:52;95464.25;;;-5.74
6498;BMP280;3282;48.358;10.958;2022-12-13T01:36:20;95464.47;;;-5.65
6498;BMP280;3282;48.358;10.958;2022-12-13T01:38:53;95463.44;;;-5.69
6498;BMP280;3282;48.358;10.958;2022-12-13T01:41:24;95455.09;;;-5.76
6498;BMP280;3282;48.358;10.958;2022-12-13T01:43:55;95446.78;;;-5.84
6498;BMP280;3282;48.358;10.958;2022-12-13T01:46:22;95457.22;;;-5.73
6498;BMP280;3282;48.358;10.958;2022-12-13T01:49:09;95446.28;;;-5.70
6498;BMP280;3282;48.358;10.958;2022-12-13T01:51:51;95435.06;;;-5.71
6498;BMP280;3282;48.358;10.958;2022-12-13T01:54:29;95420.22;;;-5.75
6498;BMP280;3282;48.358;10.958;2022-12-13T01:57:02;95430.09;;;-5.67
6498;BMP280;3282;48.358;10.958;2022-12-13T02:07:48;95425.19;;;-5.79
6498;BMP280;3282;48.358;10.958;2022-12-13T02:10:14;95428.03;;;-5.70
6498;BMP280;3282;48.358;10.958;2022-12-13T02:12:42;95430.91;;;-5.72
6498;BMP280;3282;48.358;10.958;2022-12-13T02:15:13;95393.72;;;-5.88
6498;BMP280;3282;48.358;10.958;2022-12-13T02:17:57;95416.84;;;-5.81
6498;BMP280;3282;48.358;10.958;2022-12-13T02:20:41;95427.25;;;-5.76
6498;BMP280;3282;48.358;10.958;2022-12-13T02:26:45;95418.38;;;-5.75
6498;BMP280;3282;48.358;10.958;2022-12-13T02:37:53;95391.88;;;-5.98
6498;BMP280;3282;48.358;10.958;2022-12-13T02:40:45;95409.81;;;-5.86
6498;BMP280;3282;48.358;10.958;2022-12-13T02:43:19;95400.47;;;-5.87
6498;BMP280;3282;48.358;10.958;2022-12-13T02:45:50;95359.63;;;-6.18
6498;BMP280;3282;48.358;10.958;2022-12-13T02:48:21;95402.53;;;-5.89
6498;BMP280;3282;48.358;10.958;2022-12-13T02:50:50;95343.78;;;-6.27
6498;BMP280;3282;48.358;10.958;2022-12-13T02:53:18;95388.22;;;-5.92
6498;BMP280;3282;48.358;10.958;2022-12-13T02:55:46;95385.13;;;-5.99
6498;BMP280;3282;48.358;10.958;2022-12-13T02:58:16;95392.13;;;-5.94
6498;BMP280;3282;48.358;10.958;2022-12-13T03:00:55;95392.66;;;-5.92
6498;BMP280;3282;48.358;10.958;2022-12-13T03:04:12;95383.28;;;-5.88
6498;BMP280;3282;48.358;10.958;2022-12-13T03:09:47;95387.16;;;-5.91
6498;BMP280;3282;48.358;10.958;2022-12-13T03:12:36;95386.13;;;-5.89
6498;BMP280;3282;48.358;10.958;2022-12-13T03:15:32;95359.59;;;-6.02
6498;BMP280;3282;48.358;10.958;2022-12-13T03:18:06;95368.72;;;-5.99
6498;BMP280;3282;48.358;10.958;2022-12-13T03:20:45;95376.00;;;-6.01
6498;BMP280;3282;48.358;10.958;2022-12-13T03:23:13;95374.47;;;-6.03
6498;BMP280;3282;48.358;10.958;2022-12-13T03:25:39;95382.75;;;-6.00
6498;BMP280;3282;48.358;10.958;2022-12-13T03:28:06;95380.97;;;-6.05
6498;BMP280;3282;48.358;10.958;2022-12-13T03:30:33;95374.19;;;-6.22
6498;BMP280;3282;48.358;10.958;2022-12-13T03:33:00;95379.13;;;-6.15
6498;BMP280;3282;48.358;10.958;2022-12-13T03:35:27;95368.22;;;-6.28
6498;BMP280;3282;48.358;10.958;2022-12-13T03:38:00;95378.38;;;-6.21
6498;BMP280;3282;48.358;10.958;2022-12-13T03:40:28;95377.59;;;-6.27
6498;BMP280;3282;48.358;10.958;2022-12-13T03:42:55;95377.06;;;-6.29
6498;BMP280;3282;48.358;10.958;2022-12-13T03:45:21;95370.03;;;-6.39
6498;BMP280;3282;48.358;10.958;2022-12-13T03:47:48;95376.56;;;-6.31
6498;BMP280;3282;48.358;10.958;2022-12-13T03:50:15;95374.22;;;-6.32
6498;BMP280;3282;48.358;10.958;2022-12-13T03:52:58;95360.69;;;-6.29
6498;BMP280;3282;48.358;10.958;2022-12-13T03:55:25;95350.00;;;-6.38
6498;BMP280;3282;48.358;10.958;2022-12-13T03:57:51;95363.78;;;-6.27
6498;BMP280;3282;48.358;10.958;2022-12-13T04:00:18;95366.91;;;-6.25
6498;BMP280;3282;48.358;10.958;2022-12-13T04:02:45;95364.56;;;-6.21
6498;BMP280;3282;48.358;10.958;2022-12-13T04:05:11;95371.34;;;-6.20
6498;BMP280;3282;48.358;10.958;2022-12-13T04:07:38;95370.06;;;-6.18
6498;BMP280;3282;48.358;10.958;2022-12-13T04:10:13;95370.56;;;-6.16
6498;BMP280;3282;48.358;10.958;2022-12-13T04:12:52;95363.53;;;-6.15
6498;BMP280;3282;48.358;10.958;2022-12-13T04:15:38;95373.69;;;-6.13
6498;BMP280;3282;48.358;10.958;2022-12-13T04:18:04;95321.69;;;-6.45
6498;BMP280;3282;48.358;10.958;2022-12-13T04:20:31;95361.97;;;-6.21
6498;BMP280;3282;48.358;10.958;2022-12-13T04:22:57;95354.16;;;-6.21
6498;BMP280;3282;48.358;10.958;2022-12-13T04:25:25;95359.63;;;-6.23
6498;BMP280;3282;48.358;10.958;2022-12-13T04:27:51;95351.31;;;-6.30
6498;BMP280;3282;48.358;10.958;2022-12-13T04:30:18;95356.50;;;-6.25
6498;BMP280;3282;48.358;10.958;2022-12-13T04:32:44;95353.41;;;-6.32
6498;BMP280;3282;48.358;10.958;2022-12-13T04:35:11;95357.28;;;-6.30
6498;BMP280;3282;48.358;10.958;2022-12-13T04:37:38;95348.94;;;-6.37
6498;BMP280;3282;48.358;10.958;2022-12-13T04:40:09;95362.75;;;-6.37
6498;BMP280;3282;48.358;10.958;2022-12-13T04:42:35;95340.13;;;-6.57
6498;BMP280;3282;48.358;10.958;2022-12-13T04:45:02;95365.09;;;-6.51
6498;BMP280;3282;48.358;10.958;2022-12-13T04:47:29;95350.53;;;-6.62
6498;BMP280;3282;48.358;10.958;2022-12-13T04:49:55;95361.72;;;-6.56
6498;BMP280;3282;48.358;10.958;2022-12-13T04:52:22;95362.75;;;-6.63
6498;BMP280;3282;48.358;10.958;2022-12-13T04:54:49;95350.53;;;-6.73
6498;BMP280;3282;48.358;10.958;2022-12-13T04:57:22;95354.69;;;-6.72
6498;BMP280;3282;48.358;10.958;2022-12-13T04:59:48;95342.22;;;-6.75
6498;BMP280;3282;48.358;10.958;2022-12-13T05:02:15;95325.28;;;-6.82
6498;BMP280;3282;48.358;10.958;2022-12-13T05:04:49;95348.97;;;-6.74
6498;BMP280;3282;48.358;10.958;2022-12-13T05:07:19;95342.47;;;-6.71
6498;BMP280;3282;48.358;10.958;2022-12-13T05:09:46;95348.19;;;-6.69
6498;BMP280;3282;48.358;10.958;2022-12-13T05:12:12;95331.00;;;-6.80
6498;BMP280;3282;48.358;10.958;2022-12-13T05:14:49;95335.66;;;-6.77
6498;BMP280;3282;48.358;10.958;2022-12-13T05:17:16;95343.75;;;-6.74
6498;BMP280;3282;48.358;10.958;2022-12-13T05:19:42;95344.25;;;-6.77
6498;BMP280;3282;48.358;10.958;2022-12-13T05:22:10;95343.22;;;-6.81
6498;BMP280;3282;48.358;10.958;2022-12-13T05:24:46;95334.16;;;-6.89
6498;BMP280;3282;48.358;10.958;2022-12-13T05:27:13;95324.22;;;-6.97
6498;BMP280;3282;48.358;10.958;2022-12-13T05:29:55;95321.34;;;-6.90
6498;BMP280;3282;48.358;10.958;2022-12-13T05:32:34;95334.38;;;-6.96
6498;BMP280;3282;48.358;10.958;2022-12-13T05:35:14;95329.69;;;-6.99
6498;BMP280;3282;48.358;10.958;2022-12-13T05:37:52;95332.56;;;-7.00
6498;BMP280;3282;48.358;10.958;2022-12-13T05:40:25;95338.53;;;-7.00
6498;BMP280;3282;48.358;10.958;2022-12-13T05:42:52;95331.78;;;-7.01
6498;BMP280;3282;48.358;10.958;2022-12-13T05:45:28;95337.72;;;-7.05
6498;BMP280;3282;48.358;10.958;2022-12-13T05:47:55;95331.75;;;-7.06
6498;BMP280;3282;48.358;10.958;2022-12-13T05:50:22;95327.84;;;-7.09
6498;BMP280;3282;48.358;10.958;2022-12-13T05:52:48;95309.63;;;-7.19
6498;BMP280;3282;48.358;10.958;2022-12-13T05:55:15;95328.09;;;-7.05
6498;BMP280;3282;48.358;10.958;2022-12-13T05:57:42;95319.28;;;-7.09
6498;BMP280;3282;48.358;10.958;2022-12-13T06:00:17;95332.03;;;-7.02
6498;BMP280;3282;48.358;10.958;2022-12-13T06:02:56;95334.63;;;-7.02
6498;BMP280;3282;48.358;10.958;2022-12-13T06:05:27;95339.53;;;-7.06
6498;BMP280;3282;48.358;10.958;2022-12-13T06:07:54;95330.19;;;-7.12
6498;BMP280;3282;48.358;10.958;2022-12-13T06:10:23;95319.28;;;-7.14
6498;BMP280;3282;48.358;10.958;2022-12-13T06:12:49;95323.44;;;-7.13
6498;BMP280;3282;48.358;10.958;2022-12-13T06:15:16;95327.34;;;-7.11
6498;BMP280;3282;48.358;10.958;2022-12-13T06:17:48;95328.63;;;-7.08
6498;BMP280;3282;48.358;10.958;2022-12-13T06:20:14;95335.41;;;-7.07
6498;BMP280;3282;48.358;10.958;2022-12-13T06:22:52;95331.72;;;-7.16
6498;BMP280;3282;48.358;10.958;2022-12-13T06:25:19;95334.31;;;-7.27
6498;BMP280;3282;48.358;10.958;2022-12-13T06:27:58;95330.91;;;-7.33
6498;BMP280;3282;48.358;10.958;2022-12-13T06:30:28;95322.03;;;-7.42
6498;BMP280;3282;48.358;10.958;2022-12-13T06:32:55;95333.75;;;-7.34
6498;BMP280;3282;48.358;10.958;2022-12-13T06:35:23;95333.25;;;-7.36
6498;BMP280;3282;48.358;10.958;2022-12-13T06:37:56;95277.53;;;-7.72
6498;BMP280;3282;48.358;10.958;2022-12-13T06:40:30;95337.16;;;-7.28
6498;BMP280;3282;48.358;10.958;2022-12-13T06:42:57;95322.06;;;-7.37
6498;BMP280;3282;48.358;10.958;2022-12-13T06:45:24;95347.81;;;-7.25
6498;BMP280;3282;48.358;10.958;2022-12-13T06:47:51;95347.81;;;-7.25
6498;BMP280;3282;48.358;10.958;2022-12-13T06:50:18;95330.59;;;-7.42
6498;BMP280;3282;48.358;10.958;2022-12-13T06:52:45;95349.84;;;-7.32
6498;BMP280;3282;48.358;10.958;2022-12-13T06:55:12;95345.19;;;-7.30
6498;BMP280;3282;48.358;10.958;2022-12-13T06:57:39;95311.38;;;-7.51
6498;BMP280;3282;48.358;10.958;2022-12-13T07:00:07;95316.84;;;-7.47
6498;BMP280;3282;48.358;10.958;2022-12-13T07:02:34;95337.94;;;-7.28
6498;BMP280;3282;48.358;10.958;2022-12-13T07:05:01;95341.03;;;-7.31
6498;BMP280;3282;48.358;10.958;2022-12-13T07:07:28;95333.19;;;-7.42
6498;BMP280;3282;48.358;10.958;2022-12-13T07:09:55;95340.53;;;-7.33
6498;BMP280;3282;48.358;10.958;2022-12-13T07:12:22;95340.53;;;-7.23
6498;BMP280;3282;48.358;10.958;2022-12-13T07:14:48;95337.47;;;-7.14
6498;BMP280;3282;48.358;10.958;2022-12-13T07:17:15;95338.50;;;-7.10
6498;BMP280;3282;48.358;10.958;2022-12-13T07:19:59;95333.84;;;-7.03
6498;BMP280;3282;48.358;10.958;2022-12-13T07:22:26;95331.50;;;-6.94
6498;BMP280;3282;48.358;10.958;2022-12-13T07:24:53;95328.09;;;-7.05
6498;BMP280;3282;48.358;10.958;2022-12-13T07:27:19;95345.03;;;-6.97
6498;BMP280;3282;48.358;10.958;2022-12-13T07:29:46;95346.59;;;-6.91
6498;BMP280;3282;48.358;10.958;2022-12-13T07:32:13;95351.81;;;-6.86
6498;BMP280;3282;48.358;10.958;2022-12-13T07:34:39;95336.75;;;-6.89
6498;BMP280;3282;48.358;10.958;2022-12-13T07:37:07;95358.59;;;-6.74
6498;BMP280;3282;48.358;10.958;2022-12-13T07:39:54;95371.59;;;-6.74
6498;BMP280;3282;48.358;10.958;2022-12-13T07:42:29;95358.31;;;-6.78
6498;BMP280;3282;48.358;10.958;2022-12-13T07:44:55;95366.13;;;-6.67
6498;BMP280;3282;48.358;10.958;2022-12-13T07:47:22;95362.47;;;-6.66
6498;BMP280;3282;48.358;10.958;2022-12-13T07:49:48;95358.84;;;-6.65
6498;BMP280;3282;48.358;10.958;2022-12-13T07:52:15;95301.91;;;-7.03
6498;BMP280;3282;48.358;10.958;2022-12-13T07:54:42;95362.53;;;-6.61
6498;BMP280;3282;48.358;10.958;2022-12-13T07:57:09;95357.31;;;-6.56
6498;BMP280;3282;48.358;10.958;2022-12-13T07:59:36;95358.34;;;-6.57
6498;BMP280;3282;48.358;10.958;2022-12-13T08:02:02;95356.53;;;-6.56
6498;BMP280;3282;48.358;10.958;2022-12-13T08:04:29;95350.78;;;-6.58
6498;BMP280;3282;48.358;10.958;2022-12-13T08:07:07;95349.22;;;-6.65
6498;BMP280;3282;48.358;10.958;2022-12-13T08:09:34;95339.59;;;-6.69
6498;BMP280;3282;48.358;10.958;2022-12-13T08:12:02;95350.03;;;-6.54
6498;BMP280;3282;48.358;10.958;2022-12-13T08:14:28;95345.31;;;-6.52
6498;BMP280;3282;48.358;10.958;2022-12-13T08:16:55;95352.38;;;-6.57
6498;BMP280;3282;48.358;10.958;2022-12-13T08:19:22;95353.41;;;-6.58
6498;BMP280;3282;48.358;10.958;2022-12-13T08:21:49;95290.97;;;-7.00
6498;BMP280;3282;48.358;10.958;2022-12-13T08:24:23;95340.91;;;-6.56
6498;BMP280;3282;48.358;10.958;2022-12-13T08:26:53;95345.56;;;-6.53
6498;BMP280;3282;48.358;10.958;2022-12-13T08:29:19;95353.91;;;-6.46
6498;BMP280;3282;48.358;10.958;2022-12-13T08:32:00;95359.63;;;-6.44
6498;BMP280;3282;48.358;10.958;2022-12-13T08:34:27;95360.44;;;-6.43
6498;BMP280;3282;48.358;10.958;2022-12-13T08:36:54;95364.09;;;-6.34
6498;BMP280;3282;48.358;10.958;2022-12-13T08:39:29;95363.53;;;-6.31
6498;BMP280;3282;48.358;10.958;2022-12-13T08:42:04;95375.25;;;-6.23
6498;BMP280;3282;48.358;10.958;2022-12-13T08:44:44;95377.31;;;-6.25
6498;BMP280;3282;48.358;10.958;2022-12-13T08:47:10;95380.72;;;-6.19
6498;BMP280;3282;48.358;10.958;2022-12-13T08:49:49;95365.59;;;-6.22
6498;BMP280;3282;48.358;10.958;2022-12-13T08:52:16;95383.03;;;-6.12
6498;BMP280;3282;48.358;10.958;2022-12-13T08:54:43;95382.78;;;-6.11
6498;BMP280;3282;48.358;10.958;2022-12-13T08:57:10;95383.31;;;-6.04
6498;BMP280;3282;48.358;10.958;2022-12-13T08:59:36;95382.50;;;-6.04
6498;BMP280;3282;48.358;10.958;2022-12-13T09:02:03;95370.81;;;-6.01
6498;BMP280;3282;48.358;10.958;2022-12-13T09:04:30;95377.81;;;-5.92
6498;BMP280;3282;48.358;10.958;2022-12-13T09:06:57;95355.72;;;-6.05
6498;BMP280;3282;48.358;10.958;2022-12-13T09:09:28;95386.66;;;-5.87
6498;BMP280;3282;48.358;10.958;2022-12-13T09:11:55;95373.88;;;-5.84
6498;BMP280;3282;48.358;10.958;2022-12-13T09:14:26;95374.88;;;-5.74
6498;BMP280;3282;48.358;10.958;2022-12-13T09:17:00;95374.16;;;-5.85
6498;BMP280;3282;48.358;10.958;2022-12-13T09:19:29;95363.44;;;-5.79
6498;BMP280;3282;48.358;10.958;2022-12-13T09:22:03;95357.72;;;-5.70
6498;BMP280;3282;48.358;10.958;2022-12-13T09:24:31;95362.34;;;-5.51
6498;BMP280;3282;48.358;10.958;2022-12-13T09:27:03;95365.91;;;-5.42
6498;BMP280;3282;48.358;10.958;2022-12-13T09:29:36;95370.59;;;-5.34
6498;BMP280;3282;48.358;10.958;2022-12-13T09:32:02;95353.44;;;-5.45
6498;BMP280;3282;48.358;10.958;2022-12-13T09:34:29;95369.28;;;-5.36
6498;BMP280;3282;48.358;10.958;2022-12-13T09:36:58;95365.94;;;-5.37
6498;BMP280;3282;48.358;10.958;2022-12-13T09:39:27;95348.28;;;-5.61
6498;BMP280;3282;48.358;10.958;2022-12-13T09:41:56;95363.09;;;-5.51
6498;BMP280;3282;48.358;10.958;2022-12-13T09:44:35;95361.03;;;-5.59
6498;BMP280;3282;48.358;10.958;2022-12-13T09:47:15;95355.56;;;-5.52
6498;BMP280;3282;48.358;10.958;2022-12-13T09:49:51;95346.19;;;-5.59
6498;BMP280;3282;48.358;10.958;2022-12-13T09:52:21;95360.50;;;-5.51
6498;BMP280;3282;48.358;10.958;2022-12-13T09:54:52;95356.59;;;-5.48
6498;BMP280;3282;48.358;10.958;2022-12-13T09:57:23;95353.66;;;-5.36
6498;BMP280;3282;48.358;10.958;2022-12-13T10:00:07;95347.94;;;-5.33
6498;BMP280;3282;48.358;10.958;2022-12-13T10:08:11;95328.81;;;-5.18
6498;BMP280;3282;48.358;10.958;2022-12-13T10:10:39;95317.38;;;-5.22
6498;BMP280;3282;48.358;10.958;2022-12-13T10:15:43;95336.22;;;-4.95
6498;BMP280;3282;48.358;10.958;2022-12-13T10:18:15;95334.63;;;-4.91
6498;BMP280;3282;48.358;10.958;2022-12-13T10:20:47;95325.97;;;-4.81
6498;BMP280;3282;48.358;10.958;2022-12-13T10:23:14;95330.66;;;-4.78
6498;BMP280;3282;48.358;10.958;2022-12-13T10:26:07;95327.34;;;-4.59
6498;BMP280;3282;48.358;10.958;2022-12-13T10:28:49;95320.25;;;-4.54
6498;BMP280;3282;48.358;10.958;2022-12-13T10:31:18;95275.81;;;-4.73
6498;BMP280;3282;48.358;10.958;2022-12-13T10:33:53;95320.16;;;-4.38
6498;BMP280;3282;48.358;10.958;2022-12-13T10:36:31;95303.63;;;-4.33
6498;BMP280;3282;48.358;10.958;2022-12-13T10:38:58;95322.41;;;-4.31
6498;BMP280;3282;48.358;10.958;2022-12-13T10:41:36;95334.41;;;-4.30
6498;BMP280;3282;48.358;10.958;2022-12-13T10:46:38;95323.38;;;-4.22
6498;BMP280;3282;48.358;10.958;2022-12-13T10:49:23;95317.81;;;-4.15
6498;BMP280;3282;48.358;10.958;2022-12-13T10:51:51;95316.44;;;-4.07
6498;BMP280;3282;48.358;10.958;2022-12-13T10:54:28;95321.13;;;-4.04
6498;BMP280;3282;48.358;10.958;2022-12-13T10:57:04;95317.47;;;-4.03
6498;BMP280;3282;48.358;10.958;2022-12-13T10:59:37;95314.28;;;-4.00
6498;BMP280;3282;48.358;10.958;2022-12-13T11:02:57;95324.94;;;-3.96
6498;BMP280;3282;48.358;10.958;2022-12-13T11:05:30;95307.09;;;-3.89
6498;BMP280;3282;48.358;10.958;2022-12-13T11:08:20;95322.19;;;-3.86
6498;BMP280;3282;48.358;10.958;2022-12-13T11:11:02;95302.88;;;-3.85
6498;BMP280;3282;48.358;10.958;2022-12-13T11:13:37;95310.16;;;-3.82
6498;BMP280;3282;48.358;10.958;2022-12-13T11:16:22;95323.03;;;-3.66
6498;BMP280;3282;48.358;10.958;2022-12-13T11:18:53;95313.56;;;-3.62
6498;BMP280;3282;48.358;10.958;2022-12-13T11:21:25;95314.63;;;-3.63
6498;BMP280;3282;48.358;10.958;2022-12-13T11:23:53;95302.06;;;-3.61
6498;BMP280;3282;48.358;10.958;2022-12-13T11:26:28;95308.91;;;-3.46
6498;BMP280;3282;48.358;10.958;2022-12-13T11:35:23;95295.88;;;-3.26
6498;BMP280;3282;48.358;10.958;2022-12-13T11:38:01;95293.38;;;-3.17
6498;BMP280;3282;48.358;10.958;2022-12-13T11:40:41;95277.28;;;-3.25
6498;BMP280;3282;48.358;10.958;2022-12-13T11:43:32;95282.50;;;-3.25
6498;BMP280;3282;48.358;10.958;2022-12-13T11:46:12;95237.84;;;-3.48
6498;BMP280;3282;48.358;10.958;2022-12-13T11:48:50;95298.28;;;-2.96
6498;BMP280;3282;48.358;10.958;2022-12-13T11:51:26;95294.47;;;-3.04
6498;BMP280;3282;48.358;10.958;2022-12-13T11:53:58;95295.13;;;-2.93
6498;BMP280;3282;48.358;10.958;2022-12-13T11:56:30;95276.50;;;-2.92
6498;BMP280;3282;48.358;10.958;2022-12-13T11:59:17;95276.22;;;-2.76
6498;BMP280;3282;48.358;10.958;2022-12-13T12:02:32;95286.22;;;-2.78
6498;BMP280;3282;48.358;10.958;2022-12-13T12:05:05;95282.75;;;-2.74
6498;BMP280;3282;48.358;10.958;2022-12-13T12:07:46;95285.69;;;-2.61
6498;BMP280;3282;48.358;10.958;2022-12-13T12:10:40;95278.03;;;-2.43
6498;BMP280;3282;48.358;10.958;2022-12-13T12:13:32;95270.78;;;-2.32
6498;BMP280;3282;48.358;10.958;2022-12-13T12:16:48;95268.38;;;-2.15
6498;BMP280;3282;48.358;10.958;2022-12-13T12:19:21;95213.56;;;-2.53
6498;BMP280;3282;48.358;10.958;2022-12-13T12:36:06;95265.22;;;-2.03
6498;BMP280;3282;48.358;10.958;2022-12-13T12:41:19;95254.38;;;-2.38
6498;BMP280;3282;48.358;10.958;2022-12-13T12:43:55;95262.44;;;-2.20
6498;BMP280;3282;48.358;10.958;2022-12-13T12:47:09;95268.38;;;-2.15
6498;BMP280;3282;48.358;10.958;2022-12-13T12:50:17;95269.72;;;-2.17
6498;BMP280;3282;48.358;10.958;2022-12-13T12:55:58;95273.72;;;-2.20
6498;BMP280;3282;48.358;10.958;2022-12-13T13:03:55;95265.53;;;-2.32
6498;BMP280;3282;48.358;10.958;2022-12-13T13:06:34;95272.94;;;-2.34
6498;BMP280;3282;48.358;10.958;2022-12-13T13:09:07;95284.84;;;-2.28
6498;BMP280;3282;48.358;10.958;2022-12-13T13:11:40;95241.88;;;-2.69
6498;BMP280;3282;48.358;10.958;2022-12-13T13:16:54;95278.84;;;-2.29
6498;BMP280;3282;48.358;10.958;2022-12-13T13:21:59;95264.69;;;-2.28
6498;BMP280;3282;48.358;10.958;2022-12-13T13:24:31;95277.28;;;-2.16
6498;BMP280;3282;48.358;10.958;2022-12-13T13:29:38;95285.41;;;-2.03
6498;BMP280;3282;48.358;10.958;2022-12-13T13:32:23;95282.69;;;-2.12
6498;BMP280;3282;48.358;10.958;2022-12-13T13:40:47;95284.09;;;-2.15
6498;BMP280;3282;48.358;10.958;2022-12-13T13:43:16;95271.84;;;-2.19
6498;BMP280;3282;48.358;10.958;2022-12-13T13:48:52;95280.22;;;-2.31
6498;BMP280;3282;48.358;10.958;2022-12-13T13:54:11;95254.78;;;-2.59
6498;BMP280;3282;48.358;10.958;2022-12-13T14:22:00;95273.81;;;-2.72
6498;BMP280;3282;48.358;10.958;2022-12-13T14:24:38;95283.41;;;-2.82
6498;BMP280;3282;48.358;10.958;2022-12-13T14:27:20;95279.91;;;-2.91
6498;BMP280;3282;48.358;10.958;2022-12-13T14:29:49;95288.97;;;-3.03
6498;BMP280;3282;48.358;10.958;2022-12-13T14:32:27;95272.94;;;-3.15
6498;BMP280;3282;48.358;10.958;2022-12-13T14:34:56;95280.59;;;-3.19
6498;BMP280;3282;48.358;10.958;2022-12-13T14:37:34;95280.47;;;-3.28
6498;BMP280;3282;48.358;10.958;2022-12-13T14:40:25;95286.47;;;-3.27
6498;BMP280;3282;48.358;10.958;2022-12-13T14:42:52;95294.00;;;-3.26
6498;BMP280;3282;48.358;10.958;2022-12-13T14:48:13;95282.50;;;-3.25
6498;BMP280;3282;48.358;10.958;2022-12-13T14:50:42;95290.84;;;-3.23
6498;BMP280;3282;48.358;10.958;2022-12-13T14:53:28;95281.03;;;-3.31
6498;BMP280;3282;48.358;10.958;2022-12-13T14:56:10;95285.25;;;-3.35
6498;BMP280;3282;48.358;10.958;2022-12-13T14:58:59;95293.34;;;-3.31
6498;BMP280;3282;48.358;10.958;2022-12-13T15:01:37;95287.38;;;-3.37
6498;BMP280;3282;48.358;10.958;2022-12-13T15:07:05;95256.63;;;-3.46
6498;BMP280;3282;48.358;10.958;2022-12-13T15:09:40;95272.72;;;-3.38
6498;BMP280;3282;48.358;10.958;2022-12-13T15:12:16;95271.97;;;-3.39
6498;BMP280;3282;48.358;10.958;2022-12-13T15:15:06;95268.88;;;-3.41
6498;BMP280;3282;48.358;10.958;2022-12-13T15:17:35;95259.13;;;-3.54
6498;BMP280;3282;48.358;10.958;2022-12-13T15:22:59;95266.13;;;-3.50
6498;BMP280;3282;48.358;10.958;2022-12-13T15:25:32;95273.88;;;-3.45
6498;BMP280;3282;48.358;10.958;2022-12-13T15:28:00;95281.16;;;-3.41
6498;BMP280;3282;48.358;10.958;2022-12-13T15:30:32;95284.56;;;-3.41
6498;BMP280;3282;48.358;10.958;2022-12-13T15:33:03;95280.88;;;-3.40
6498;BMP280;3282;48.358;10.958;2022-12-13T15:35:30;95280.03;;;-3.35
6498;BMP280;3282;48.358;10.958;2022-12-13T15:37:59;95272.72;;;-3.38
6498;BMP280;3282;48.358;10.958;2022-12-13T15:40:26;95282.63;;;-3.35
6498;BMP280;3282;48.358;10.958;2022-12-13T15:42:53;95281.72;;;-3.45
6498;BMP280;3282;48.358;10.958;2022-12-13T15:45:24;95212.75;;;-3.87
6498;BMP280;3282;48.358;10.958;2022-12-13T15:47:58;95283.63;;;-3.50
6498;BMP280;3282;48.358;10.958;2022-12-13T15:50:43;95273.47;;;-3.52
6498;BMP280;3282;48.358;10.958;2022-12-13T15:53:25;95265.06;;;-3.68
6498;BMP280;3282;48.358;10.958;2022-12-13T15:55:53;95274.06;;;-3.60
6498;BMP280;3282;48.358;10.958;2022-12-13T15:58:25;95274.31;;;-3.57
6498;BMP280;3282;48.358;10.958;2022-12-13T16:00:52;95255.78;;;-3.60
6498;BMP280;3282;48.358;10.958;2022-12-13T16:03:21;95264.13;;;-3.58
6498;BMP280;3282;48.358;10.958;2022-12-13T16:05:51;95246.13;;;-3.79
6498;BMP280;3282;48.358;10.958;2022-12-13T16:08:25;95250.41;;;-3.69
6498;BMP280;3282;48.358;10.958;2022-12-13T16:10:53;95241.88;;;-3.75
6498;BMP280;3282;48.358;10.958;2022-12-13T16:13:35;95257.97;;;-3.67
6498;BMP280;3282;48.358;10.958;2022-12-13T16:18:44;95253.25;;;-3.65
6498;BMP280;3282;48.358;10.958;2022-12-13T16:21:11;95239.88;;;-3.64
6498;BMP280;3282;48.358;10.958;2022-12-13T16:23:39;95242.78;;;-3.65
6498;BMP280;3282;48.358;10.958;2022-12-13T16:26:19;95232.91;;;-3.69
6498;BMP280;3282;48.358;10.958;2022-12-13T16:28:46;95230.59;;;-3.70
6498;BMP280;3282;48.358;10.958;2022-12-13T16:31:18;95224.66;;;-3.76
6498;BMP280;3282;48.358;10.958;2022-12-13T16:33:48;95229.03;;;-3.71
6498;BMP280;3282;48.358;10.958;2022-12-13T16:36:15;95234.44;;;-3.67
6498;BMP280;3282;48.358;10.958;2022-12-13T16:38:41;95223.03;;;-3.72
6498;BMP280;3282;48.358;10.958;2022-12-13T16:41:08;95221.06;;;-3.80
6498;BMP280;3282;48.358;10.958;2022-12-13T16:43:43;95208.19;;;-3.96
6498;BMP280;3282;48.358;10.958;2022-12-13T16:46:11;95217.41;;;-3.79
6498;BMP280;3282;48.358;10.958;2022-12-13T16:49:00;95206.28;;;-3.90
6498;BMP280;3282;48.358;10.958;2022-12-13T16:51:30;95216.31;;;-3.78
6498;BMP280;3282;48.358;10.958;2022-12-13T16:53:57;95206.50;;;-3.86